Latest Weather Observations for Geelong Racecourse

IDV60801

Issued at 6:32 pm EDT Friday 9 December 2016 (issued every 30 minutes, with the page automatically refreshed every 10 minutes)

About weather observations | Map of weather stations | Latest weather observations for VIC | Other Formats
Station Details ID: 087184 Name: GEELONG RACECOURSE Lat: -38.17 Lon: 144.38 Height: 12.9 m
Data from the previous 72 hours. | See also: Recent months at Geelong Racecourse
Date/Time
EDT
Temp
°C
App
Temp
°C
Dew
Point
°C
Rel
Hum
%
Delta-T
°C
Wind Press
QNH
hPa
Press
MSL
hPa
Rain since
9am
mm
Dir  Spd
km/h
Gust
km/h
Spd
kts
Gust
kts
09/06:30pm 14.6 10.2 7.4 62 3.5 SSW 20 30 11 16 1020.1 1020.1 0.0
09/06:00pm 14.4 10.0 7.5 63 3.4 SSW 20 26 11 14 1019.9 1019.9 0.0
09/05:30pm 15.1 9.9 7.2 59 3.9 SSW 24 37 13 20 1019.6 1019.6 0.0
09/05:00pm 15.5 10.2 7.0 57 4.2 S 24 35 13 19 1019.4 1019.4 0.0
09/04:30pm 15.9 10.3 7.1 56 4.3 SSW 26 37 14 20 1019.3 1019.3 0.0
09/04:00pm 15.2 10.1 7.5 60 3.8 SSW 24 35 13 19 1019.3 1019.3 0.0
09/03:30pm 17.1 12.0 7.5 53 4.8 S 24 35 13 19 1019.1 1019.1 0.0
09/03:00pm 15.5 10.6 7.0 57 4.2 SSW 22 39 12 21 1019.1 1019.1 0.0
09/02:30pm 15.5 10.4 6.0 53 4.6 SW 22 32 12 17 1019.0 1019.0 0.0
09/02:00pm 15.3 9.6 6.8 57 4.1 S 26 39 14 21 1019.0 1019.0 0.0
09/01:30pm 15.8 11.6 5.7 51 4.8 SW 17 22 9 12 1018.7 1018.7 0.0
09/01:00pm 17.0 12.4 5.6 47 5.5 SSW 19 26 10 14 1018.6 1018.6 0.0
09/12:30pm 16.0 10.7 5.0 48 5.2 SW 22 33 12 18 1018.5 1018.5 0.0
09/12:00pm 15.0 9.2 6.3 56 4.2 SSW 26 35 14 19 1018.2 1018.2 0.0
09/11:30am 15.1 8.9 4.5 49 4.9 SW 26 39 14 21 1017.7 1017.7 0.0
09/11:00am 14.9 8.9 5.1 52 4.6 SW 26 41 14 22 1017.5 1017.5 0.0
09/10:30am 13.5 7.0 4.6 55 4.1 WSW 28 39 15 21 1017.1 1017.1 0.0
09/10:00am 13.8 8.1 4.7 54 4.2 WSW 24 33 13 18 1016.8 1016.8 0.0
09/09:30am 13.0 8.2 5.4 60 3.5 WSW 20 28 11 15 1016.5 1016.5 0.0
09/09:00am 12.4 7.3 6.0 65 3.0 WSW 22 32 12 17 1016.1 1016.1 0.8
09/08:30am 12.4 7.7 6.2 66 2.9 WSW 20 32 11 17 1015.3 1015.3 0.8
09/08:00am 10.8 5.9 7.1 78 1.8 WSW 22 39 12 21 1015.1 1015.1 0.8
09/07:30am 11.0 6.9 6.2 72 2.2 WSW 17 22 9 12 1014.2 1014.2 0.8
09/07:00am 10.1 5.7 6.4 78 1.7 W 19 28 10 15 1013.8 1013.8 0.8
09/06:30am 9.5 5.8 6.4 81 1.4 W 15 22 8 12 1013.0 1013.0 0.8
09/06:00am 9.5 5.9 6.6 82 1.4 WSW 15 24 8 13 1012.6 1012.6 0.8
09/05:30am 9.1 5.7 5.8 80 1.5 W 13 19 7 10 1011.9 1011.9 0.8
09/05:00am 8.9 5.9 6.0 82 1.3 W 11 15 6 8 1011.5 1011.5 0.8
09/04:30am 9.1 6.1 5.8 80 1.5 W 11 17 6 9 1011.0 1011.0 0.8
09/04:00am 9.3 5.4 5.3 76 1.8 W 15 22 8 12 1010.5 1010.5 0.8
09/03:30am 9.3 6.1 5.3 76 1.8 W 11 17 6 9 1010.1 1010.1 0.8
09/03:00am 10.0 5.8 5.8 75 1.9 WSW 17 24 9 13 1010.0 1010.0 0.8
09/02:30am 9.8 6.1 6.3 79 1.6 W 15 20 8 11 1009.6 1009.6 0.8
09/02:00am 10.5 6.9 6.6 77 1.8 W 15 20 8 11 1009.4 1009.4 0.8
09/01:30am 11.1 7.9 8.3 83 1.4 W 15 20 8 11 1009.4 1009.4 0.8
09/01:00am 11.1 8.2 8.3 83 1.4 W 13 19 7 10 1009.2 1009.2 0.8
09/12:30am 11.8 9.0 8.5 80 1.6 W 13 19 7 10 1009.1 1009.1 0.8
09/12:00am 11.7 8.8 8.0 78 1.8 W 13 19 7 10 1008.7 1008.7 0.8
 
Date/Time
EDT
Temp
°C
App
Temp
°C
Dew
Point
°C
Rel
Hum
%
Delta-T
°C
Wind Press
QNH
hPa
Press
MSL
hPa
Rain since
9am
mm
Dir  Spd
km/h
Gust
km/h
Spd
kts
Gust
kts
08/11:30pm 12.1 8.3 7.4 73 2.3 W 17 28 9 15 1008.3 1008.3 0.8
08/11:00pm 12.5 8.6 7.0 69 2.7 W 17 24 9 13 1008.1 1008.1 0.8
08/10:30pm 12.9 8.5 6.7 66 3.0 W 19 28 10 15 1007.5 1007.5 0.8
08/10:00pm 13.1 8.6 6.2 63 3.3 WSW 19 30 10 16 1006.9 1006.9 0.8
08/09:36pm 13.4 7.3 6.7 64 3.2 SW 28 46 15 25 1006.5 1006.5 0.8
08/09:30pm 13.5 7.6 7.5 67 2.9 SW 28 41 15 22 1006.2 1006.2 0.8
08/09:00pm 13.7 8.2 9.2 74 2.3 WSW 28 44 15 24 1005.5 1005.5 0.8
08/08:30pm 14.3 10.1 9.7 74 2.4 W 22 35 12 19 1004.8 1004.8 0.8
08/08:00pm 15.3 10.6 9.2 67 3.1 W 24 37 13 20 1004.0 1004.0 0.8
08/07:30pm 16.1 11.5 9.5 65 3.4 W 24 35 13 19 1002.9 1002.9 0.8
08/07:00pm 16.8 11.3 9.0 60 4.0 WSW 28 48 15 26 1002.0 1002.0 0.8
08/06:30pm 17.1 10.6 8.3 56 4.5 W 32 52 17 28 1001.0 1001.0 0.8
08/06:00pm 17.9 10.2 8.5 54 4.9 W 39 63 21 34 1000.1 1000.1 0.8
08/05:37pm 17.6 10.8 9.2 58 4.4 W 35 56 19 30 999.9 999.9 0.8
08/05:30pm 18.2 11.3 9.0 55 4.8 W 35 52 19 28 999.8 999.8 0.8
08/05:05pm 19.0 11.7 8.9 52 5.3 W 37 57 20 31 999.5 999.5 0.8
08/05:00pm 18.9 11.3 9.1 53 5.2 W 39 57 21 31 999.5 999.5 0.8
08/04:52pm 17.9 9.9 10.3 61 4.1 W 43 61 23 33 999.2 999.2 0.8
08/04:49pm 18.4 9.8 8.9 54 4.9 W 44 61 24 33 999.1 999.1 0.8
08/04:30pm 21.1 13.9 7.7 42 6.9 WNW 35 57 19 31 997.9 997.9 0.8
08/04:00pm 20.9 13.1 8.2 44 6.7 WNW 39 57 21 31 997.5 997.5 0.8
08/03:30pm 20.2 11.0 6.5 41 6.9 WNW 44 72 24 39 997.4 997.4 0.8
08/03:00pm 21.6 12.6 7.4 40 7.4 W 44 76 24 41 997.1 997.1 0.8
08/02:30pm 21.6 11.3 6.7 38 7.6 WNW 50 70 27 38 996.9 996.9 0.8
08/02:00pm 21.8 12.7 6.9 38 7.7 WNW 44 69 24 37 996.5 996.5 0.8
08/01:30pm 22.3 14.2 6.9 37 7.9 WNW 39 69 21 37 996.2 996.2 0.8
08/01:00pm 21.5 12.7 7.3 40 7.4 WNW 43 69 23 37 995.9 995.9 0.8
08/12:30pm 20.3 11.3 7.3 43 6.6 WNW 44 72 24 39 996.4 996.4 0.8
08/12:00pm 19.7 11.9 8.4 48 5.9 WNW 39 63 21 34 996.5 996.5 0.8
08/11:36am 19.1 11.6 9.6 54 5.0 WNW 39 59 21 32 996.9 996.9 0.8
08/11:30am 18.9 11.5 9.7 55 4.9 WNW 39 57 21 31 996.7 996.7 0.8
08/11:17am 18.2 11.8 10.6 61 4.1 WNW 35 56 19 30 996.6 996.6 0.8
08/11:00am 17.1 11.6 11.8 71 2.9 WNW 32 46 17 25 996.6 996.6 0.8
08/10:30am 16.4 11.3 12.0 75 2.4 WNW 30 56 16 30 997.0 997.0 0.8
08/10:21am 16.3 10.8 12.5 78 2.1 WNW 33 56 18 30 996.9 996.9 0.8
08/10:00am 15.9 10.8 11.9 77 2.2 WNW 30 46 16 25 996.8 996.8 0.8
08/09:31am 18.9 15.5 15.8 82 1.8 NNW 28 59 15 32 996.4 996.4 0.0
08/09:30am 19.8 17.5 17.6 87 1.3 NNW 26 44 14 24 996.1 996.1 0.0
08/09:00am 19.9 18.1 16.9 83 1.8 N 22 35 12 19 995.0 995.0 1.6
08/08:30am 19.4 18.9 17.7 90 1.0 N 17 30 9 16 995.4 995.4 1.6
08/08:00am 18.7 17.6 17.4 92 0.8 N 19 26 10 14 995.6 995.6 1.6
08/07:30am 19.0 17.4 16.6 86 1.4 N 20 30 11 16 996.5 996.5 1.2
08/07:00am 18.6 16.0 16.8 89 1.1 N 26 39 14 21 996.5 996.5 1.0
08/06:30am 19.1 15.2 15.6 80 2.1 N 30 43 16 23 997.0 997.0 0.4
08/06:00am 21.8 16.9 12.4 55 5.4 NNW 30 54 16 29 997.6 997.6 0.0
08/05:32am 24.4 19.0 9.6 39 8.1 NNW 28 52 15 28 997.9 997.9 0.0
08/05:30am 24.4 19.2 8.8 37 8.4 NNW 26 52 14 28 997.7 997.7 0.0
08/05:00am 24.1 17.8 7.3 34 8.8 N 30 54 16 29 996.6 996.6 0.0
08/04:30am 24.9 17.8 6.6 31 9.5 N 33 54 18 29 996.4 996.4 0.0
08/04:21am 24.7 18.6 6.4 31 9.5 N 28 48 15 26 996.8 996.8 0.0
08/04:00am 23.1 20.2 8.0 38 8.0 N 13 24 7 13 997.3 997.3 0.0
08/03:30am 21.2 19.9 10.1 49 6.0 NNE 7 13 4 7 997.9 997.9 0.0
08/03:00am 20.9 18.1 8.5 45 6.5 NE 13 17 7 9 998.2 998.2 0.0
08/02:30am 20.5 18.1 8.8 47 6.2 NE 11 19 6 10 998.7 998.7 0.0
08/02:00am 19.9 17.9 10.0 53 5.3 NE 11 20 6 11 999.9 999.9 0.0
08/01:30am 19.4 18.1 12.4 64 3.9 NE 11 17 6 9 1000.8 1000.8 0.0
08/01:00am 18.9 18.7 15.8 82 1.8 NE 11 17 6 9 1001.7 1001.7 0.0
08/12:30am 18.8 19.0 15.7 82 1.8 NNE 9 13 5 7 1002.5 1002.5 0.0
08/12:00am 19.2 18.9 16.4 84 1.7 NE 13 20 7 11 1003.3 1003.3 0.0
 
Date/Time
EDT
Temp
°C
App
Temp
°C
Dew
Point
°C
Rel
Hum
%
Delta-T
°C
Wind Press
QNH
hPa
Press
MSL
hPa
Rain since
9am
mm
Dir  Spd
km/h
Gust
km/h
Spd
kts
Gust
kts
07/11:30pm 16.5 17.6 13.6 83 1.6 CALM 0 0 0 0 1004.3 1004.3 0.0
07/11:00pm 16.0 16.3 13.3 84 1.5 W 4 6 2 3 1005.0 1005.0 0.0
07/10:30pm 15.7 15.5 13.0 84 1.5 W 6 6 3 3 1005.6 1005.6 0.0
07/10:00pm 15.6 15.9 13.4 87 1.2 WSW 4 6 2 3 1006.0 1006.0 0.0
07/09:30pm 15.7 15.5 13.0 84 1.5 SW 6 6 3 3 1006.3 1006.3 0.0
07/09:00pm 16.7 16.3 12.5 76 2.3 SSW 6 7 3 4 1006.8 1006.8 0.0
07/08:30pm 18.2 17.6 12.4 69 3.2 SSW 7 9 4 5 1007.3 1007.3 0.0
07/08:00pm 20.3 19.2 12.0 59 4.6 SW 9 11 5 6 1007.5 1007.5 0.0
07/07:30pm 22.5 21.9 12.2 52 5.8 S 7 11 4 6 1007.5 1007.5 0.0
07/07:00pm 22.6 21.5 12.0 51 6.0 SSE 9 13 5 7 1007.6 1007.6 0.0
07/06:30pm 22.5 20.5 11.6 50 6.1 SSE 13 17 7 9 1007.9 1007.9 0.0
07/06:00pm 23.2 20.6 10.6 45 7.0 SE 15 22 8 12 1008.1 1008.1 0.0
07/05:30pm 24.6 21.9 7.3 33 9.1 E 11 19 6 10 1008.6 1008.6 0.0
07/05:00pm 24.7 21.1 6.9 32 9.3 E 15 26 8 14 1009.3 1009.3 0.0
07/04:30pm 24.3 21.9 7.0 33 9.0 ENE 9 17 5 9 1009.8 1009.8 0.0
07/04:00pm 24.3 21.4 6.6 32 9.2 NE 11 19 6 10 1010.4 1010.4 0.0
07/03:30pm 23.7 20.4 6.5 33 8.8 NE 13 19 7 10 1010.9 1010.9 0.0
07/03:00pm 23.4 21.2 6.2 33 8.8 ENE 7 15 4 8 1011.5 1011.5 0.0
07/02:30pm 23.4 20.9 6.7 34 8.6 ENE 9 15 5 8 1012.0 1012.0 0.0
07/02:00pm 22.6 20.1 6.4 35 8.3 ENE 9 17 5 9 1012.6 1012.6 0.0
07/01:30pm 22.4 19.6 7.0 37 7.9 NE 11 19 6 10 1013.1 1013.1 0.0
07/01:00pm 21.6 19.5 6.7 38 7.6 ENE 7 13 4 7 1013.4 1013.4 0.0
07/12:30pm 21.4 19.2 6.1 37 7.7 ENE 7 17 4 9 1014.2 1014.2 0.0
07/12:00pm 20.6 18.3 5.8 38 7.4 NE 7 15 4 8 1014.5 1014.5 0.0
07/11:30am 19.9 17.7 7.9 46 6.2 NE 9 15 5 8 1014.8 1014.8 0.0
07/11:00am 18.9 16.8 8.3 50 5.5 NE 9 15 5 8 1015.1 1015.1 0.0
07/10:30am 18.7 16.7 10.0 57 4.6 NNE 11 17 6 9 1015.3 1015.3 0.0
07/10:00am 18.3 16.5 10.7 61 4.1 NNE 11 17 6 9 1015.4 1015.4 0.0
07/09:30am 16.5 14.3 9.4 63 3.7 NNE 11 17 6 9 1015.6 1015.6 0.0
07/09:00am 16.1 14.1 10.0 67 3.2 NNE 11 17 6 9 1015.4 1015.4 0.0
07/08:30am 15.3 13.6 9.7 69 2.9 NNE 9 15 5 8 1015.4 1015.4 0.0
07/08:00am 13.7 12.5 9.4 75 2.2 NNW 6 7 3 4 1015.5 1015.5 0.0
07/07:30am 12.0 10.7 9.2 83 1.4 NW 6 7 3 4 1015.6 1015.6 0.0
07/07:00am 10.5 9.2 9.3 92 0.6 WNW 6 7 3 4 1015.4 1015.4 0.0
07/06:30am 10.1 8.5 8.9 92 0.6 NW 7 11 4 6 1015.3 1015.3 0.0
07/06:00am 8.7 7.0 7.6 93 0.5 NW 6 7 3 4 1015.3 1015.3 0.0
07/05:30am 8.6 6.9 7.5 93 0.5 WNW 6 7 3 4 1015.2 1015.2 0.0
07/05:00am 9.2 7.6 8.0 92 0.6 NW 6 7 3 4 1014.6 1014.6 0.0
07/04:30am 9.7 8.2 8.5 92 0.6 NW 6 7 3 4 1014.4 1014.4 0.0
07/04:00am 10.0 9.0 8.8 92 0.6 NW 4 6 2 3 1014.3 1014.3 0.0
07/03:30am 9.7 8.2 8.5 92 0.6 WNW 6 7 3 4 1014.6 1014.6 0.0
07/03:00am 9.8 8.3 8.4 91 0.7 WNW 6 7 3 4 1014.6 1014.6 0.0
07/02:30am 10.0 9.0 8.8 92 0.6 WNW 4 4 2 2 1015.0 1015.0 0.0
07/02:00am 9.7 8.6 8.5 92 0.6 WNW 4 4 2 2 1015.2 1015.2 0.0
07/01:30am 10.4 10.0 8.3 87 1.0 CALM 0 0 0 0 1015.5 1015.5 0.0
07/01:00am 11.3 11.1 8.9 85 1.2 CALM 0 0 0 0 1015.7 1015.7 0.0
07/12:30am 11.6 11.4 9.2 85 1.2 CALM 0 0 0 0 1015.8 1015.8 0.0
07/12:00am 11.7 11.4 8.6 81 1.5 CALM 0 0 0 0 1016.0 1016.0 0.0
 
Date/Time
EDT
Temp
°C
App
Temp
°C
Dew
Point
°C
Rel
Hum
%
Delta-T
°C
Wind Press
QNH
hPa
Press
MSL
hPa
Rain since
9am
mm
Dir  Spd
km/h
Gust
km/h
Spd
kts
Gust
kts
06/11:30pm 11.8 11.5 8.6 81 1.6 CALM 0 0 0 0 1015.9 1015.9 0.0
06/11:00pm 11.9 11.6 8.7 81 1.6 CALM 0 0 0 0 1016.0 1016.0 0.0
06/10:30pm 12.1 11.6 8.0 76 2.0 CALM 0 2 0 1 1016.2 1016.2 0.0
06/10:00pm 12.7 11.5 8.2 74 2.2 SSE 4 6 2 3 1016.1 1016.1 0.0
06/09:30pm 13.0 11.4 8.1 72 2.4 S 6 9 3 5 1015.9 1015.9 0.0
06/09:00pm 13.6 11.8 8.0 69 2.8 S 7 9 4 5 1015.6 1015.6 0.0
06/08:30pm 14.3 11.8 8.3 67 3.0 S 11 15 6 8 1015.5 1015.5 0.0
06/08:00pm 15.3 12.0 8.1 62 3.6 S 15 20 8 11 1015.1 1015.1 0.0
06/07:30pm 15.9 12.1 7.7 58 4.1 S 17 26 9 14 1014.9 1014.9 0.0
06/07:00pm 16.3 11.5 7.5 56 4.4 S 22 30 12 16 1015.0 1015.0 0.0

Other Formats:

Comma delimited format used in spreadsheet applications
http://www.bom.gov.au/fwo/IDV60801/IDV60801.94857.axf

JavaScript Object Notation format (JSON) in row-major order
http://www.bom.gov.au/fwo/IDV60801/IDV60801.94857.json